KIND

Indianapolis International Airport

Indianapolis, Indiana, USA
METAR KIND 162154Z 28010KT 10SM FEW140 SCT250 09/M01 A3010 RMK AO2 SLP197 T00891006 $
Observed Flight Rules
Dec-16 @ 21:54 UTC (59 minutes ago) Visual Flight Rules
Wind Visibility Clouds
280° at 10 knots 10 miles
  • Few at 14,000' AGL
  • Scattered at 25,000' AGL
Temperatures Readings
Current 9°C / 48°F
Dewpoint -1°C / 30°F
Humidity 50%
Altimeter 30.1" Hg
Pressure 1019.7 hPa
Elevation 241
METAR KIND 162154Z 28010KT 10SM FEW140 SCT250 09/M01 A3010 RMK AO2 SLP197 T00891006 $
Observed Flight Rules
Dec-16 @ 21:54 UTC
(59 minutes ago)
VFR
Wind Visibility
280° at 10 knots 10 miles
Clouds
  • Few at 14,000' AGL
  • Scattered at 25,000' AGL
Temperature Dewpoint
9°C / 48°F -1°C / 30°F
Humidity Altimeter Pressure
50% 30.1" Hg 1019.7 hPa